Time;durP1;ratioP1;P1;durP2;ratioP2;P2;SDS_P1;SDS_P2;PMS_P1;PMS_P2;Temp;Humidity;BMP_temperature;BMP_pressure;BME280_temperature;BME280_humidity;BME280_pressure;Samples;Min_cycle;Max_cycle;Signal;HPM_P1;HPM_P2
2021/10/10 00:02:15;;;;;;;47.60;24.52;;;;;;;3.13;66.52;101866.31;2094264;84;29364;-61
2021/10/10 00:05:18;;;;;;;48.60;24.47;;;;;;;3.14;66.64;101861.46;2090209;84;27765;-61
2021/10/10 00:08:25;;;;;;;48.38;25.80;;;;;;;3.16;66.48;101856.16;2154294;82;28687;-61
2021/10/10 00:11:28;;;;;;;40.92;24.37;;;;;;;3.17;66.42;101863.23;2125019;82;31052;-61
2021/10/10 00:14:31;;;;;;;46.08;25.40;;;;;;;3.17;66.51;101853.97;2091228;84;33197;-61
2021/10/10 00:17:37;;;;;;;49.50;27.30;;;;;;;3.16;66.85;101855.71;2100668;83;29407;-61
2021/10/10 00:20:44;;;;;;;57.88;28.85;;;;;;;3.14;66.81;101848.22;2092147;83;27782;-61
2021/10/10 00:23:48;;;;;;;52.10;28.20;;;;;;;3.13;66.88;101851.75;2105584;83;28753;-61
2021/10/10 00:26:53;;;;;;;51.90;29.12;;;;;;;3.13;66.88;101854.81;2108223;83;31069;-61
2021/10/10 00:29:56;;;;;;;;;;;;;;;3.12;66.89;101853.95;2097194;83;33092;-62
2021/10/10 00:33:01;;;;;;;51.98;28.07;;;;;;;3.11;66.95;101855.23;2088606;83;29168;-61
2021/10/10 00:36:07;;;;;;;50.88;28.92;;;;;;;3.06;66.78;101845.08;2099733;83;27865;-61
2021/10/10 00:39:13;;;;;;;;;;;;;;;3.02;66.84;101854.73;2101987;83;29513;-61
2021/10/10 00:42:19;;;;;;;48.10;26.20;;;;;;;2.99;66.85;101848.09;2087499;83;31824;-61
2021/10/10 00:45:23;;;;;;;46.68;25.77;;;;;;;2.96;66.97;101842.34;2092923;83;33617;-61
2021/10/10 00:48:29;;;;;;;49.53;27.07;;;;;;;2.97;67.28;101842.80;2117154;82;29432;-61
2021/10/10 00:51:34;;;;;;;56.42;30.27;;;;;;;2.97;67.27;101844.13;2105647;83;27780;-62
2021/10/10 00:54:39;;;;;;;51.90;30.30;;;;;;;3.01;67.27;101844.60;2095215;83;28699;-62
2021/10/10 00:57:40;;;;;;;42.80;24.07;;;;;;;3.02;67.34;101843.73;2112701;82;31666;-61
2021/10/10 01:00:47;;;;;;;50.10;29.37;;;;;;;3.06;67.41;101842.43;2111244;83;33649;-61
2021/10/10 01:03:51;;;;;;;55.90;30.05;;;;;;;3.06;67.33;101839.78;2115605;82;29358;-62
2021/10/10 01:06:57;;;;;;;60.47;30.10;;;;;;;3.06;67.24;101838.01;2085831;82;27853;-61
2021/10/10 01:10:01;;;;;;;54.15;30.85;;;;;;;3.02;67.11;101834.46;2005051;86;28728;-61
2021/10/10 01:13:04;;;;;;;53.55;29.45;;;;;;;3.00;67.23;101832.66;2041553;85;31097;-63
2021/10/10 01:16:09;;;;;;;56.23;29.92;;;;;;;2.95;67.17;101833.09;2042401;85;33606;-61
2021/10/10 01:19:12;;;;;;;54.50;30.27;;;;;;;2.91;67.22;101833.48;2019264;85;29351;-62
2021/10/10 01:22:18;;;;;;;54.90;30.65;;;;;;;2.86;67.44;101830.81;2051349;84;27839;-61
2021/10/10 01:25:21;;;;;;;54.60;30.55;;;;;;;2.81;67.26;101826.36;2126668;81;29370;-62
2021/10/10 01:28:25;;;;;;;58.28;28.62;;;;;;;2.76;67.20;101825.02;2128884;81;31043;-61
2021/10/10 01:34:33;;;;;;;43.65;25.23;;;;;;;2.67;67.54;101821.86;2062003;83;29349;-61
2021/10/10 01:37:37;;;;;;;48.38;27.65;;;;;;;2.66;67.63;101814.80;2064426;85;28519;-61
2021/10/10 01:40:44;;;;;;;57.55;28.70;;;;;;;2.66;67.49;101818.77;2118971;83;28724;-61
2021/10/10 01:43:48;;;;;;;56.60;28.55;;;;;;;2.66;67.49;101820.08;2125667;82;31701;-61
2021/10/10 01:46:51;;;;;;;50.45;27.25;;;;;;;2.67;67.55;101820.95;2087614;83;33855;-61
2021/10/10 01:49:56;;;;;;;50.03;28.38;;;;;;;2.66;67.49;101816.53;2068449;85;29407;-61
2021/10/10 01:52:59;;;;;;;55.30;28.62;;;;;;;2.63;67.52;101813.44;2072103;85;27816;-61
2021/10/10 01:56:05;;;;;;;51.05;29.52;;;;;;;2.61;67.50;101816.51;2089196;83;29143;-61
2021/10/10 01:59:09;;;;;;;54.20;29.05;;;;;;;2.59;67.44;101812.96;2066729;83;31077;-61
2021/10/10 02:02:14;;;;;;;52.88;30.70;;;;;;;2.55;67.55;101813.83;2104395;83;33010;-61
2021/10/10 02:05:19;;;;;;;;;;;;;;;2.51;67.58;101812.03;2083969;83;29435;-61
2021/10/10 02:08:23;;;;;;;51.20;29.00;;;;;;;2.45;67.79;101810.22;2081215;83;27931;-61
2021/10/10 02:11:26;;;;;;;51.77;28.83;;;;;;;2.39;67.82;101811.48;2061036;83;28663;-61
2021/10/10 02:14:30;;;;;;;40.78;25.55;;;;;;;2.33;67.92;101808.34;2070380;84;31489;-62
2021/10/10 02:17:34;;;;;;;50.10;25.20;;;;;;;2.30;67.99;101810.96;2118590;82;32978;-61
2021/10/10 02:20:38;;;;;;;46.18;26.62;;;;;;;2.30;68.26;101803.03;2104102;82;30084;-61
2021/10/10 02:23:43;;;;;;;49.08;27.17;;;;;;;2.32;68.50;101804.38;2115883;81;27728;-61
2021/10/10 02:26:46;;;;;;;50.23;27.73;;;;;;;2.33;68.75;101798.19;2122402;81;28687;-61
2021/10/10 02:29:47;;;;;;;51.65;29.02;;;;;;;2.37;68.65;101800.00;2130976;81;31087;-62
2021/10/10 02:32:53;;;;;;;59.30;29.98;;;;;;;2.40;68.77;101795.61;2159142;81;33402;-61
2021/10/10 02:35:57;;;;;;;51.53;27.93;;;;;;;2.43;68.98;101794.31;2157215;81;29344;-61
2021/10/10 02:38:59;;;;;;;37.03;22.05;;;;;;;2.46;68.83;101789.93;2152824;81;27687;-61
2021/10/10 02:42:03;;;;;;;47.27;27.40;;;;;;;2.47;68.94;101786.00;2131329;81;29240;-62
2021/10/10 02:45:07;;;;;;;47.73;25.52;;;;;;;2.47;69.30;101788.64;2120177;81;31691;-61
2021/10/10 02:48:12;;;;;;;51.02;28.10;;;;;;;2.47;69.30;101787.32;2138632;81;33130;-62
2021/10/10 02:51:14;;;;;;;49.60;28.00;;;;;;;2.47;69.13;101785.09;2148246;81;29336;-62
2021/10/10 02:54:20;;;;;;;50.35;26.97;;;;;;;2.46;69.28;101779.35;2137370;82;27615;-62
2021/10/10 02:57:21;;;;;;;47.50;25.77;;;;;;;2.44;69.13;101782.00;2111432;82;28686;-62
2021/10/10 03:00:27;;;;;;;43.33;23.83;;;;;;;2.43;69.17;101772.29;2139410;81;31718;-61
2021/10/10 03:03:32;;;;;;;39.08;23.57;;;;;;;2.45;69.20;101770.55;2101844;83;33645;-61
2021/10/10 03:06:38;;;;;;;49.15;25.92;;;;;;;2.46;69.38;101767.03;2056815;85;30322;-61
2021/10/10 03:09:44;;;;;;;52.58;28.23;;;;;;;2.48;69.25;101763.06;2091090;83;27786;-62
2021/10/10 03:12:50;;;;;;;45.90;26.77;;;;;;;2.50;69.30;101762.19;2120506;82;28716;-62
2021/10/10 03:15:52;;;;;;;52.38;27.40;;;;;;;2.51;69.35;101762.64;2118321;83;31036;-62
2021/10/10 03:18:55;;;;;;;46.48;27.10;;;;;;;2.53;69.24;101761.34;2074693;84;33059;-62
2021/10/10 03:22:01;;;;;;;46.45;26.90;;;;;;;2.56;69.13;101761.38;2099555;83;28853;-61
2021/10/10 03:25:05;;;;;;;55.75;28.83;;;;;;;2.53;69.07;101760.89;2124442;83;28407;-61
2021/10/10 03:28:09;;;;;;;44.48;27.67;;;;;;;2.50;69.17;101758.67;2072600;84;28703;-61
2021/10/10 03:31:13;;;;;;;40.95;22.32;;;;;;;2.48;69.20;101752.06;2098047;83;31086;-61
2021/10/10 03:34:16;;;;;;;43.02;25.57;;;;;;;2.45;69.15;101749.39;2107660;83;33071;-61
2021/10/10 03:37:21;;;;;;;47.55;28.42;;;;;;;2.40;68.98;101741.39;2101656;83;29398;-62
2021/10/10 03:40:23;;;;;;;56.30;28.07;;;;;;;2.36;68.95;101745.33;2086855;83;27694;-62
2021/10/10 03:43:28;;;;;;;53.08;27.58;;;;;;;2.30;69.04;101743.53;2072090;84;28108;-61
2021/10/10 03:46:33;;;;;;;43.02;25.23;;;;;;;2.26;69.25;101745.69;2070349;84;31705;-62
2021/10/10 03:49:39;;;;;;;48.15;24.85;;;;;;;2.25;69.60;101734.66;2058977;84;33018;-61
2021/10/10 03:52:43;;;;;;;50.67;26.42;;;;;;;2.24;69.54;101732.89;2111947;82;30051;-61
2021/10/10 03:55:51;;;;;;;48.52;28.15;;;;;;;2.24;69.55;101726.28;2098534;82;27786;-61
2021/10/10 03:58:56;;;;;;;45.40;26.80;;;;;;;2.24;69.61;101723.64;2135356;82;28780;-61
2021/10/10 04:02:06;;;;;;;55.15;28.05;;;;;;;2.24;69.57;101719.67;2101910;83;31888;-61
2021/10/10 04:08:23;;;;;;;53.45;29.60;;;;;;;2.22;69.73;101717.48;1977610;88;29420;-61
2021/10/10 04:11:29;;;;;;;56.00;29.32;;;;;;;2.22;69.74;101720.12;2073085;84;27849;-61
2021/10/10 04:14:34;;;;;;;50.25;29.00;;;;;;;2.19;69.65;101723.61;2065875;84;28676;-61
2021/10/10 04:17:36;;;;;;;45.92;27.45;;;;;;;2.17;69.56;101715.22;2078488;84;31088;-61
2021/10/10 04:20:42;;;;;;;46.28;27.98;;;;;;;2.15;69.54;101715.64;2062561;84;32841;-61
2021/10/10 04:23:47;;;;;;;40.52;25.05;;;;;;;2.11;69.60;101718.70;2059089;84;29139;-60
2021/10/10 04:26:53;;;;;;;46.37;26.50;;;;;;;2.05;69.46;101720.87;2059895;84;27961;-60
2021/10/10 04:29:57;;;;;;;45.90;24.72;;;;;;;2.02;69.46;101712.91;2037217;86;28687;-61
2021/10/10 04:32:59;;;;;;;63.10;36.60;;;;;;;2.02;69.39;101708.94;2007821;87;31056;-61
2021/10/10 04:36:02;;;;;;;51.37;28.47;;;;;;;2.02;69.37;101707.63;2001664;86;33426;-61
2021/10/10 04:39:09;;;;;;;50.25;28.10;;;;;;;2.03;69.52;101703.20;2020033;86;29355;-60
2021/10/10 04:42:12;;;;;;;47.75;27.90;;;;;;;2.02;69.75;101701.02;2018377;86;27843;-60
2021/10/10 04:45:15;;;;;;;51.73;29.40;;;;;;;2.01;69.56;101702.30;2102814;81;28712;-61
2021/10/10 04:48:21;;;;;;;50.33;28.10;;;;;;;1.99;69.71;101699.66;2153974;81;32222;-60
2021/10/10 04:51:26;;;;;;;53.50;29.37;;;;;;;1.97;69.61;101701.40;2155423;81;33611;-61
2021/10/10 04:54:36;;;;;;;50.05;28.60;;;;;;;1.93;69.54;101705.78;2117369;81;29348;-61
2021/10/10 04:57:42;;;;;;;52.60;28.12;;;;;;;1.91;69.46;101706.20;2122778;81;27799;-61
2021/10/10 05:00:45;;;;;;;44.93;26.30;;;;;;;1.86;69.51;101703.07;2132430;81;28664;-61
2021/10/10 05:03:50;;;;;;;44.05;24.25;;;;;;;1.82;69.52;101707.00;2165060;81;32244;-61
2021/10/10 05:06:56;;;;;;;;;;;;;;;1.82;69.46;101712.73;2155248;81;33806;-61
2021/10/10 05:10:02;;;;;;;53.45;26.48;;;;;;;1.80;69.44;101706.09;2113796;82;29352;-61
2021/10/10 05:13:08;;;;;;;43.05;25.43;;;;;;;1.78;69.54;101714.44;2117893;82;27889;-61
2021/10/10 05:16:12;;;;;;;50.00;27.58;;;;;;;1.78;69.59;101713.12;2037070;84;28712;-61
2021/10/10 05:19:14;;;;;;;44.90;27.00;;;;;;;1.78;69.75;101711.80;2092006;83;31839;-61
2021/10/10 05:22:18;;;;;;;45.40;28.15;;;;;;;1.79;69.72;101706.97;2153670;81;33009;-62
2021/10/10 05:25:23;;;;;;;54.93;31.25;;;;;;;1.81;69.72;101712.28;2152167;81;29346;-61
2021/10/10 05:28:25;;;;;;;39.00;23.07;;;;;;;1.81;69.68;101714.47;2115640;82;27695;-60
2021/10/10 05:31:28;;;;;;;51.25;27.80;;;;;;;1.81;69.70;101714.47;2140070;81;28755;-63
2021/10/10 05:34:31;;;;;;;46.48;27.32;;;;;;;1.81;69.72;101719.76;2107747;82;31150;-60
2021/10/10 05:37:35;;;;;;;53.02;26.40;;;;;;;1.84;69.66;101715.37;2099907;82;33672;-61
2021/10/10 05:40:40;;;;;;;46.28;26.73;;;;;;;1.87;69.74;101722.89;2094523;83;29358;-61
2021/10/10 05:43:43;;;;;;;46.13;28.42;;;;;;;1.89;69.80;101718.51;2102827;83;27851;-61
2021/10/10 05:46:49;;;;;;;51.88;29.77;;;;;;;1.94;69.87;101720.77;2147566;81;28705;-61
2021/10/10 05:49:53;;;;;;;46.60;29.05;;;;;;;2.00;69.83;101719.94;2146633;81;31854;-61
2021/10/10 05:52:58;;;;;;;50.28;29.80;;;;;;;2.05;69.91;101726.16;2149151;81;32993;-61
2021/10/10 05:56:04;;;;;;;49.77;29.87;;;;;;;2.11;69.91;101722.67;2134238;82;29364;-61
2021/10/10 05:59:11;;;;;;;53.98;31.35;;;;;;;2.18;69.97;101729.77;2094918;81;27659;-61
2021/10/10 06:02:16;;;;;;;50.88;31.25;;;;;;;2.27;70.05;101728.95;2138753;81;28665;-61
2021/10/10 06:05:22;;;;;;;47.17;28.52;;;;;;;2.38;70.00;101727.30;2149563;81;31741;-62
2021/10/10 06:08:26;;;;;;;43.55;25.00;;;;;;;2.53;70.00;101729.15;2138531;82;32432;-61
2021/10/10 06:11:28;;;;;;;43.55;25.72;;;;;;;2.70;70.03;101733.25;2108483;83;29379;-61
2021/10/10 06:14:32;;;;;;;46.00;25.60;;;;;;;2.88;69.96;101727.61;2120742;82;27625;-62
2021/10/10 06:17:38;;;;;;;48.03;27.47;;;;;;;3.07;69.89;101728.58;2088777;84;28724;-61
2021/10/10 06:20:40;;;;;;;51.77;26.70;;;;;;;3.25;69.75;101722.46;2071968;84;31705;-61
2021/10/10 06:23:45;;;;;;;45.10;26.07;;;;;;;3.45;69.76;101723.88;2086996;84;33153;-62
2021/10/10 06:26:48;;;;;;;51.23;27.22;;;;;;;3.64;69.63;101722.60;2091070;83;29357;-65
2021/10/10 06:29:55;;;;;;;49.35;26.05;;;;;;;3.80;69.44;101731.02;2093721;84;27678;-62
2021/10/10 06:32:59;;;;;;;49.53;28.38;;;;;;;4.00;69.47;101735.44;2086344;83;28715;-61
2021/10/10 06:36:06;;;;;;;46.27;25.97;;;;;;;4.23;69.28;101722.64;2079470;84;31042;-61
2021/10/10 06:39:12;;;;;;;49.50;25.57;;;;;;;4.47;68.95;101725.72;2076779;84;33031;-61
2021/10/10 06:42:18;;;;;;;45.12;26.80;;;;;;;4.71;68.49;101722.59;2065903;85;29397;-61
2021/10/10 06:45:24;;;;;;;45.90;27.60;;;;;;;5.00;68.38;101714.52;2077130;84;27748;-61
2021/10/10 06:48:27;;;;;;;47.03;27.90;;;;;;;5.44;68.35;101719.66;2091323;83;28738;-61
2021/10/10 06:51:32;;;;;;;45.70;25.57;;;;;;;5.89;68.00;101722.02;2091572;83;31760;-61
2021/10/10 06:54:37;;;;;;;45.58;25.37;;;;;;;6.31;67.44;101711.97;2082099;83;32983;-62
2021/10/10 06:57:44;;;;;;;42.98;26.97;;;;;;;6.77;66.79;101717.30;2067633;84;29578;-62
2021/10/10 07:00:47;;;;;;;44.00;26.75;;;;;;;7.25;66.20;101725.17;2129166;81;27679;-61
2021/10/10 07:03:55;;;;;;;41.68;26.60;;;;;;;7.70;65.89;101715.20;2150980;81;28484;-61
2021/10/10 07:07:01;;;;;;;43.98;27.50;;;;;;;8.20;65.44;101722.00;2152540;81;33329;-62
2021/10/10 07:10:07;;;;;;;45.60;27.45;;;;;;;8.63;64.65;101715.05;2174683;80;33731;-61
2021/10/10 07:13:09;;;;;;;43.33;27.62;;;;;;;9.09;64.36;101714.62;2169564;80;29320;-61
2021/10/10 07:19:24;;;;;;;51.95;29.02;;;;;;;9.92;63.05;101713.69;2174147;80;28684;-62
2021/10/10 07:22:32;;;;;;;41.95;27.65;;;;;;;10.27;62.36;101711.90;2114828;81;31043;-63
2021/10/10 07:25:38;;;;;;;45.45;28.75;;;;;;;10.66;61.85;101708.27;2124382;82;33408;-62
2021/10/10 07:28:45;;;;;;;48.55;25.95;;;;;;;11.00;60.80;101712.69;2081645;84;29356;-62
2021/10/10 07:31:47;;;;;;;43.17;25.00;;;;;;;11.27;60.16;101708.77;2082366;84;28037;-62
2021/10/10 07:34:50;;;;;;;43.83;24.43;;;;;;;11.49;59.72;101706.30;2096095;84;28789;-62
2021/10/10 07:37:56;;;;;;;38.48;24.43;;;;;;;11.85;59.65;101704.73;2088819;83;31550;-62
2021/10/10 07:41:00;;;;;;;44.08;23.32;;;;;;;12.18;57.73;101707.27;2063902;83;33933;-62
2021/10/10 07:44:06;;;;;;;39.60;25.52;;;;;;;12.37;57.25;101701.27;2081867;83;36918;-61
2021/10/10 07:50:24;;;;;;;37.45;23.12;;;;;;;12.83;56.87;101699.62;2094105;84;28618;-61
2021/10/10 07:53:29;;;;;;;36.98;23.80;;;;;;;13.06;56.42;101704.63;2096030;83;31046;-62
2021/10/10 07:56:34;;;;;;;;;;;;;;;13.31;55.86;101700.99;2081914;83;33724;-62
2021/10/10 07:59:38;;;;;;;40.27;24.23;;;;;;;13.37;55.08;101707.50;2143813;81;30054;-63
2021/10/10 08:02:57;;;;;;;33.70;21.75;;;;;;;13.38;54.86;101704.73;2137859;81;27708;-61
2021/10/10 08:06:03;;;;;;;35.20;24.85;;;;;;;13.37;54.84;101705.66;2138631;81;28706;-62
2021/10/10 08:09:11;;;;;;;33.40;22.07;;;;;;;13.34;54.58;101700.39;2117792;81;31020;-61
2021/10/10 08:12:18;;;;;;;34.83;22.95;;;;;;;13.24;54.04;101702.19;2152391;81;30004;-62
2021/10/10 08:15:24;;;;;;;38.80;22.60;;;;;;;13.06;53.78;101700.11;2153809;81;29339;-61
2021/10/10 08:18:30;;;;;;;36.13;23.57;;;;;;;12.84;53.40;101701.38;2136986;81;27656;-61
2021/10/10 08:21:36;;;;;;;33.98;22.70;;;;;;;12.68;53.97;101712.28;2114532;81;28697;-62
2021/10/10 08:24:42;;;;;;;33.65;22.90;;;;;;;12.52;52.67;101711.48;2116081;82;31045;-62
2021/10/10 08:27:47;;;;;;;34.25;22.10;;;;;;;12.30;53.62;101712.70;2126698;82;33054;-61
2021/10/10 08:30:53;;;;;;;;;;;;;;;12.21;53.78;101712.55;2127541;82;28864;-62
2021/10/10 08:33:54;;;;;;;32.60;20.57;;;;;;;12.13;53.61;101715.48;2133485;82;27801;-61
2021/10/10 08:36:59;;;;;;;31.80;19.52;;;;;;;12.06;53.59;101707.69;2142344;81;28692;-61
2021/10/10 08:40:05;;;;;;;;;;;;;;;12.03;53.45;101705.09;2149572;81;31054;-61
2021/10/10 08:43:09;;;;;;;31.70;20.35;;;;;;;12.02;53.24;101704.20;2149019;81;33809;-65
2021/10/10 08:46:13;;;;;;;33.35;21.73;;;;;;;11.84;52.59;101700.30;2147238;81;33033;-62
2021/10/10 08:49:17;;;;;;;32.98;20.20;;;;;;;11.76;52.92;101694.27;2128068;81;27708;-63
2021/10/10 08:52:23;;;;;;;35.70;20.43;;;;;;;11.73;52.96;101691.23;2165452;80;28709;-65
2021/10/10 08:55:31;;;;;;;31.82;19.10;;;;;;;11.76;52.61;101688.45;2166501;80;31007;-61
2021/10/10 08:58:40;;;;;;;31.27;18.77;;;;;;;11.76;52.34;101688.45;2161457;80;32989;-61
2021/10/10 09:01:44;;;;;;;27.37;18.48;;;;;;;11.76;52.23;101687.12;2158211;81;29380;-62
2021/10/10 09:04:51;;;;;;;27.47;17.87;;;;;;;11.81;52.02;101681.59;2161580;80;27722;-61
2021/10/10 09:07:58;;;;;;;28.05;16.52;;;;;;;11.83;51.58;101679.73;2150818;80;28680;-63
2021/10/10 09:11:03;;;;;;;25.55;17.07;;;;;;;11.83;51.41;101676.57;2150657;81;31052;-62
2021/10/10 09:14:08;;;;;;;26.23;16.23;;;;;;;11.84;50.71;101679.67;2099661;82;33651;-62
2021/10/10 09:17:23;;;;;;;25.90;15.32;;;;;;;11.80;51.20;101675.36;2092803;83;30170;-63
2021/10/10 09:20:36;;;;;;;30.97;17.77;;;;;;;11.79;50.97;101670.02;2101131;83;27819;-62
2021/10/10 09:23:42;;;;;;;28.83;15.78;;;;;;;11.82;51.18;101668.13;2051535;83;28707;-62
2021/10/10 09:26:47;;;;;;;25.72;14.35;;;;;;;11.86;50.51;101672.93;2091644;83;31027;-62
2021/10/10 09:29:52;;;;;;;27.17;13.63;;;;;;;11.92;49.94;101662.45;2127898;81;32381;-63
2021/10/10 09:32:55;;;;;;;;;;;;;;;11.91;49.08;101662.03;2139450;81;29342;-62
2021/10/10 09:36:05;;;;;;;22.75;13.68;;;;;;;11.87;49.15;101647.83;2120799;81;28305;-64
2021/10/10 09:39:13;;;;;;;25.37;13.93;;;;;;;11.90;49.51;101645.50;2116335;81;29449;-62
2021/10/10 09:42:37;;;;;;;19.73;13.05;;;;;;;11.91;48.08;101641.89;2042103;84;31912;-63
2021/10/10 09:45:53;;;;;;;;;;;;;;;11.96;48.67;101638.11;2026211;83;32975;-62
2021/10/10 09:48:48;;;;;;;24.43;12.15;;;;;;;12.00;47.70;101632.20;2062652;83;29422;-64
2021/10/10 09:51:53;;;;;;;;;;;;;;;12.06;48.09;101627.11;2086180;83;27738;-64
2021/10/10 09:55:00;;;;;;;23.37;11.33;;;;;;;12.13;46.03;101629.53;2082363;83;28684;-62
2021/10/10 09:58:05;;;;;;;23.35;11.80;;;;;;;12.16;47.17;101629.39;2064396;84;31079;-63
2021/10/10 10:01:22;;;;;;;20.68;12.43;;;;;;;12.22;47.35;101626.09;2117459;82;32939;-63
2021/10/10 10:04:26;;;;;;;16.02;9.95;;;;;;;12.27;46.83;101626.33;2125692;82;29354;-62
2021/10/10 10:07:30;;;;;;;16.02;10.08;;;;;;;12.34;46.54;101624.78;2141175;81;27715;-61
2021/10/10 10:10:36;;;;;;;17.07;10.00;;;;;;;12.36;45.55;101607.66;2067967;84;30070;-63
2021/10/10 10:13:41;;;;;;;18.57;9.28;;;;;;;12.37;44.96;101610.76;2086387;82;31087;-62
2021/10/10 10:16:49;;;;;;;16.10;10.08;;;;;;;12.41;44.57;101607.52;2131397;81;33652;-64
2021/10/10 10:19:55;;;;;;;18.85;8.45;;;;;;;12.44;45.32;101604.69;2092426;84;29460;-63
2021/10/10 10:23:01;;;;;;;13.15;8.95;;;;;;;12.50;44.12;101601.80;2117420;82;28274;-62
2021/10/10 10:26:04;;;;;;;15.10;9.28;;;;;;;12.55;44.52;101598.92;2127558;82;28875;-62
2021/10/10 10:29:18;;;;;;;17.35;9.05;;;;;;;12.61;44.78;101602.75;2166149;81;31669;-63
2021/10/10 10:32:24;;;;;;;16.82;9.25;;;;;;;12.66;44.03;101593.16;2134735;81;33411;-66
2021/10/10 10:35:30;;;;;;;17.12;9.00;;;;;;;12.69;43.08;101593.91;2161882;81;29549;-62
2021/10/10 10:38:51;;;;;;;12.00;8.00;;;;;;;12.70;43.09;101594.32;2059276;83;27838;-62
2021/10/10 10:41:57;;;;;;;19.35;9.85;;;;;;;12.74;43.23;101591.07;2089303;84;28697;-63
2021/10/10 10:45:00;;;;;;;15.32;9.25;;;;;;;12.75;42.95;101586.97;2057703;85;31046;-61
2021/10/10 10:48:08;;;;;;;20.40;8.83;;;;;;;12.79;42.74;101589.55;2075326;85;33039;-65
2021/10/10 10:51:30;;;;;;;17.70;9.23;;;;;;;12.81;42.65;101580.95;2106376;81;30201;-62
2021/10/10 10:54:43;;;;;;;18.73;8.33;;;;;;;12.82;40.94;101584.05;2137187;81;27628;-63
2021/10/10 10:58:11;;;;;;;13.28;8.03;;;;;;;12.84;42.81;101581.70;2148855;82;28705;-61
2021/10/10 11:01:16;;;;;;;16.60;8.33;;;;;;;12.86;41.78;101569.08;2136817;82;31062;-65
2021/10/10 11:04:32;;;;;;;16.52;8.55;;;;;;;12.91;42.06;101578.30;2150492;82;33802;-63
2021/10/10 11:07:36;;;;;;;;;;;;;;;12.96;42.13;101563.33;2119053;83;29359;-65
2021/10/10 11:10:42;;;;;;;18.07;8.13;;;;;;;12.99;40.94;101556.48;2106740;83;27698;-64
2021/10/10 11:13:57;;;;;;;19.00;7.53;;;;;;;13.02;42.00;101561.27;2065305;84;29518;-64
2021/10/10 11:17:11;;;;;;;14.57;8.10;;;;;;;13.07;40.87;101561.97;2128728;82;31093;-66
2021/10/10 11:20:17;;;;;;;16.93;9.27;;;;;;;13.10;41.00;101559.61;2116796;82;33092;-62
2021/10/10 11:23:24;;;;;;;18.27;8.35;;;;;;;13.14;40.87;101558.56;2170535;80;30156;-63
2021/10/10 11:26:30;;;;;;;17.12;7.15;;;;;;;13.18;40.78;101555.27;2139926;82;27656;-63
2021/10/10 11:29:33;;;;;;;14.25;8.00;;;;;;;13.20;40.54;101555.64;2144934;81;29377;-63
2021/10/10 11:32:52;;;;;;;16.10;8.18;;;;;;;13.22;39.94;101544.34;2141458;81;31454;-63
2021/10/10 11:35:57;;;;;;;13.25;8.23;;;;;;;13.25;39.29;101550.51;2139560;81;33555;-64
2021/10/10 11:39:11;;;;;;;16.27;9.15;;;;;;;13.28;39.46;101540.97;2081977;82;29345;-64
2021/10/10 11:42:17;;;;;;;13.58;7.47;;;;;;;13.30;39.23;101540.44;2146695;81;28475;-63
2021/10/10 11:45:25;;;;;;;10.98;7.40;;;;;;;13.30;38.74;101537.75;2141050;81;28723;-63
2021/10/10 11:48:38;;;;;;;13.98;7.47;;;;;;;13.34;38.99;101525.93;2100326;82;31040;-64
2021/10/10 11:51:46;;;;;;;12.60;7.37;;;;;;;13.37;39.36;101526.67;2134264;82;32989;-65
2021/10/10 11:55:05;;;;;;;14.23;7.65;;;;;;;13.41;39.11;101522.55;2134556;81;30271;-63
2021/10/10 11:58:05;;;;;;;11.33;7.50;;;;;;;13.46;38.15;101514.67;2140872;81;28321;-63
2021/10/10 12:01:11;;;;;;;16.30;7.78;;;;;;;13.47;38.41;101512.88;2145115;81;28704;-62
2021/10/10 12:04:20;;;;;;;13.20;6.42;;;;;;;13.49;37.97;101514.55;2158254;81;31172;-62
2021/10/10 12:07:30;;;;;;;13.95;8.10;;;;;;;13.50;38.08;101508.68;2121757;82;33628;-65
2021/10/10 12:10:37;;;;;;;20.88;7.62;;;;;;;13.49;38.36;101501.09;2153865;81;29995;-65
2021/10/10 12:13:59;;;;;;;17.95;6.72;;;;;;;13.52;38.84;101499.62;2127920;82;27873;-63
2021/10/10 12:17:04;;;;;;;13.18;6.53;;;;;;;13.57;37.87;101502.11;2107775;82;28702;-62
2021/10/10 12:20:26;;;;;;;17.90;8.55;;;;;;;13.59;38.33;101499.33;2102510;82;31044;-62
2021/10/10 12:23:28;;;;;;;12.03;6.78;;;;;;;13.58;38.25;101493.09;2172989;80;33784;-62
2021/10/10 12:27:01;;;;;;;19.60;9.25;;;;;;;13.62;39.09;101493.82;2164423;80;29158;-63
2021/10/10 12:30:02;;;;;;;15.53;6.92;;;;;;;13.62;38.10;101488.44;2152999;82;27479;-62
2021/10/10 12:33:31;;;;;;;14.80;7.70;;;;;;;13.65;38.20;101489.17;2143536;82;28716;-61
2021/10/10 12:36:47;;;;;;;12.10;7.65;;;;;;;13.64;38.03;101478.48;2128439;81;31205;-61
2021/10/10 12:39:50;;;;;;;12.90;7.97;;;;;;;13.63;38.62;101480.77;2128897;81;32979;-63
2021/10/10 12:42:56;;;;;;;13.80;7.35;;;;;;;13.64;38.74;101475.78;2133324;81;29946;-62
2021/10/10 12:46:02;;;;;;;16.87;8.25;;;;;;;13.63;38.82;101480.31;2143489;82;27647;-63
2021/10/10 12:49:07;;;;;;;15.78;8.65;;;;;;;13.62;38.40;101474.52;2129915;82;28717;-61
2021/10/10 12:52:14;;;;;;;14.45;7.92;;;;;;;13.61;38.48;101469.18;2131106;82;31111;-61
2021/10/10 12:55:27;;;;;;;10.18;7.37;;;;;;;13.59;38.07;101472.41;2105474;83;33642;-62
2021/10/10 12:58:47;;;;;;;11.83;8.45;;;;;;;13.61;38.54;101463.80;2097616;83;29408;-62
2021/10/10 13:01:52;;;;;;;14.68;7.87;;;;;;;13.63;38.53;101468.65;2121353;81;27830;-66
2021/10/10 13:04:58;;;;;;;14.10;7.65;;;;;;;13.66;38.03;101468.52;2138043;81;29554;-63
2021/10/10 13:08:05;;;;;;;13.95;7.05;;;;;;;13.66;38.03;101468.03;2140607;81;30468;-63
2021/10/10 13:11:11;;;;;;;15.80;7.20;;;;;;;13.66;36.94;101467.17;2089585;81;34371;-62
2021/10/10 13:14:16;;;;;;;11.88;7.55;;;;;;;13.65;37.27;101460.03;2160348;81;30152;-64
2021/10/10 13:17:20;;;;;;;14.33;8.25;;;;;;;13.63;37.83;101461.46;2146768;81;27766;-62
2021/10/10 13:20:23;;;;;;;16.87;9.97;;;;;;;13.63;37.49;101456.53;2154059;81;29480;-62
2021/10/10 13:23:29;;;;;;;14.70;7.62;;;;;;;13.62;37.14;101458.81;2149444;81;31081;-61
2021/10/10 13:26:35;;;;;;;16.17;9.65;;;;;;;13.61;37.61;101451.23;2150532;81;33024;-62
2021/10/10 13:29:40;;;;;;;17.30;9.53;;;;;;;13.61;37.49;101448.98;2159177;81;29386;-62
2021/10/10 13:32:42;;;;;;;18.02;9.70;;;;;;;13.60;37.48;101445.89;2178183;80;27842;-63
2021/10/10 13:35:48;;;;;;;15.98;8.88;;;;;;;13.60;37.27;101441.85;2175535;80;29052;-63
2021/10/10 13:38:53;;;;;;;13.75;7.58;;;;;;;13.60;37.39;101438.70;2145460;80;31097;-61
2021/10/10 13:41:58;;;;;;;;;;;;;;;13.58;37.27;101433.85;2159014;81;32987;-62
2021/10/10 13:45:04;;;;;;;13.85;7.72;;;;;;;13.58;37.06;101437.00;2164673;81;29386;-63
2021/10/10 13:48:10;;;;;;;11.73;7.00;;;;;;;13.55;37.06;101435.33;2153359;81;28091;-62
2021/10/10 13:51:15;;;;;;;13.45;7.80;;;;;;;13.55;37.24;101433.98;2155651;81;28692;-62
2021/10/10 13:54:21;;;;;;;13.00;8.28;;;;;;;13.54;36.77;101429.54;2122360;81;31887;-62
2021/10/10 13:57:28;;;;;;;16.95;8.28;;;;;;;13.52;37.50;101432.77;2126274;81;32995;-62
2021/10/10 14:00:32;;;;;;;13.03;7.85;;;;;;;13.51;36.90;101427.87;2108045;81;29401;-62
2021/10/10 14:03:35;;;;;;;;;;;;;;;13.50;37.40;101424.77;2152537;81;27656;-62
2021/10/10 14:06:40;;;;;;;19.15;7.80;;;;;;;13.49;37.05;101425.71;2148910;81;28796;-63
2021/10/10 14:09:46;;;;;;;12.58;7.45;;;;;;;13.46;36.78;101423.63;2147441;81;31872;-64
2021/10/10 14:12:50;;;;;;;16.73;7.28;;;;;;;13.43;36.60;101407.61;2158474;81;33017;-63
2021/10/10 14:15:57;;;;;;;18.43;7.20;;;;;;;13.39;37.21;101408.19;2158648;81;29445;-63
2021/10/10 14:19:02;;;;;;;14.18;6.78;;;;;;;13.37;37.38;101407.38;2138500;81;27680;-62
2021/10/10 14:22:06;;;;;;;13.53;7.30;;;;;;;13.32;36.87;101403.52;2120227;82;29769;-62
2021/10/10 14:25:13;;;;;;;15.45;7.90;;;;;;;13.25;37.39;101398.02;2040070;85;31075;-62
2021/10/10 14:28:19;;;;;;;11.93;7.15;;;;;;;13.19;37.01;101396.92;2035675;85;33036;-62
2021/10/10 14:31:25;;;;;;;15.75;7.33;;;;;;;13.12;36.88;101397.66;2056927;84;29378;-64